Time;durP1;ratioP1;P1;durP2;ratioP2;P2;SDS_P1;SDS_P2;PMS_P1;PMS_P2;Temp;Humidity;BMP_temperature;BMP_pressure;BME280_temperature;BME280_humidity;BME280_pressure;Samples;Min_cycle;Max_cycle;Signal;HPM_P1;HPM_P2
2022/05/11 00:00:18;;;;;;;2.43;1.00;;;20.70;99.90;;;;;;1039335;28;20025;-72
2022/05/11 00:00:49;;;;;;;1.43;1.00;;;20.70;99.90;;;;;;1039346;28;20029;-72
2022/05/11 00:01:20;;;;;;;1.60;1.00;;;20.70;99.90;;;;;;1038672;28;20108;-72
2022/05/11 00:01:52;;;;;;;2.03;1.20;;;20.70;99.90;;;;;;1038591;28;20101;-71
2022/05/11 00:02:22;;;;;;;1.60;1.17;;;20.70;99.90;;;;;;1038894;28;20154;-70
2022/05/11 00:02:53;;;;;;;1.63;1.07;;;20.70;99.90;;;;;;1035237;28;20185;-71
2022/05/11 00:03:24;;;;;;;1.00;0.90;;;20.70;99.90;;;;;;1034332;28;20052;-70
2022/05/11 00:03:56;;;;;;;1.23;0.90;;;20.70;99.90;;;;;;1034704;28;20054;-71
2022/05/11 00:04:27;;;;;;;1.92;0.90;;;20.70;99.90;;;;;;1034979;28;20119;-72
2022/05/11 00:04:58;;;;;;;1.57;0.90;;;20.70;99.90;;;;;;1035355;28;20068;-70
2022/05/11 00:05:28;;;;;;;1.33;0.97;;;20.70;99.90;;;;;;1038908;28;20514;-70
2022/05/11 00:05:59;;;;;;;2.37;1.30;;;20.70;99.90;;;;;;1038721;28;20041;-70
2022/05/11 00:06:29;;;;;;;1.37;1.00;;;20.70;99.90;;;;;;1038683;28;20030;-70
2022/05/11 00:07:00;;;;;;;2.10;1.07;;;20.70;99.90;;;;;;1038976;28;20017;-70
2022/05/11 00:07:31;;;;;;;2.50;1.07;;;20.70;99.90;;;;;;1038582;28;20272;-70
2022/05/11 00:08:03;;;;;;;1.50;0.97;;;20.70;99.90;;;;;;1038963;28;20092;-71
2022/05/11 00:08:34;;;;;;;1.05;0.82;;;20.70;99.90;;;;;;1038750;28;20025;-70
2022/05/11 00:09:07;;;;;;;2.50;1.07;;;20.70;99.90;;;;;;1038861;28;20036;-71
2022/05/11 00:09:37;;;;;;;1.77;0.98;;;20.60;99.90;;;;;;1038744;28;20243;-70
2022/05/11 00:10:12;;;;;;;2.77;1.10;;;20.60;99.90;;;;;;1038525;28;20035;-70
2022/05/11 00:10:43;;;;;;;1.75;1.08;;;20.60;99.90;;;;;;1038922;28;20028;-73
2022/05/11 00:11:14;;;;;;;1.00;0.90;;;20.60;99.90;;;;;;1038926;28;20072;-70
2022/05/11 00:11:45;;;;;;;0.93;0.90;;;20.60;99.90;;;;;;1042053;28;20525;-71
2022/05/11 00:12:16;;;;;;;1.63;1.30;;;20.60;99.90;;;;;;1043384;28;20460;-70
2022/05/11 00:12:47;;;;;;;0.83;0.70;;;20.60;99.90;;;;;;1043161;28;20051;-72
2022/05/11 00:13:18;;;;;;;1.65;1.10;;;20.60;99.90;;;;;;1043658;28;20017;-70
2022/05/11 00:13:48;;;;;;;2.33;1.17;;;20.60;99.90;;;;;;1043048;28;20100;-71
2022/05/11 00:14:19;;;;;;;2.17;1.10;;;20.60;99.90;;;;;;1043025;28;20108;-72
2022/05/11 00:14:49;;;;;;;1.50;1.10;;;20.60;99.90;;;;;;1042840;28;20032;-69
2022/05/11 00:15:22;;;;;;;2.30;1.37;;;20.60;99.90;;;;;;1043178;28;20602;-69
2022/05/11 00:15:53;;;;;;;2.33;1.13;;;20.60;99.90;;;;;;1042716;28;20017;-70
2022/05/11 00:16:25;;;;;;;0.70;0.70;;;20.60;99.90;;;;;;1043065;28;20029;-70
2022/05/11 00:16:59;;;;;;;1.15;0.90;;;20.60;99.90;;;;;;1042616;28;20091;-72
2022/05/11 00:17:30;;;;;;;1.80;1.38;;;20.60;99.90;;;;;;1043043;28;20013;-70
2022/05/11 00:18:01;;;;;;;2.33;1.00;;;20.60;99.90;;;;;;1042927;28;20017;-70
2022/05/11 00:18:32;;;;;;;1.92;0.93;;;20.60;99.90;;;;;;1043039;28;20431;-70
2022/05/11 00:19:03;;;;;;;1.30;0.93;;;20.60;99.90;;;;;;1042865;28;20551;-72
2022/05/11 00:19:33;;;;;;;2.03;1.00;;;20.60;99.90;;;;;;1042927;28;20013;-73
2022/05/11 00:20:06;;;;;;;2.07;0.80;;;20.60;99.90;;;;;;1042685;28;20121;-70
2022/05/11 00:20:37;;;;;;;1.60;1.10;;;20.60;99.90;;;;;;1038985;28;20021;-70
2022/05/11 00:21:09;;;;;;;1.40;1.30;;;20.60;99.90;;;;;;1038859;28;20009;-69
2022/05/11 00:21:39;;;;;;;3.22;0.95;;;20.60;99.90;;;;;;1038864;28;20028;-70
2022/05/11 00:22:10;;;;;;;1.07;0.90;;;20.60;99.90;;;;;;1038484;28;20124;-70
2022/05/11 00:22:40;;;;;;;1.87;0.97;;;20.60;99.90;;;;;;1038861;28;20032;-71
2022/05/11 00:23:11;;;;;;;2.30;0.83;;;20.60;99.90;;;;;;1038733;28;20037;-69
2022/05/11 00:23:41;;;;;;;1.67;0.90;;;20.60;99.90;;;;;;1043287;28;20017;-69
2022/05/11 00:24:12;;;;;;;1.57;0.90;;;20.60;99.90;;;;;;1042929;28;20150;-71
2022/05/11 00:24:42;;;;;;;2.13;1.30;;;20.60;99.90;;;;;;1043131;28;20204;-70
2022/05/11 00:25:15;;;;;;;2.03;1.10;;;20.60;99.90;;;;;;1042455;28;20416;-71
2022/05/11 00:25:46;;;;;;;1.30;0.88;;;20.60;99.90;;;;;;1038800;28;20021;-71
2022/05/11 00:26:16;;;;;;;1.00;0.90;;;20.50;99.90;;;;;;1039097;28;20017;-71
2022/05/11 00:26:47;;;;;;;1.20;0.93;;;20.50;99.90;;;;;;1042925;28;20087;-72
2022/05/11 00:27:17;;;;;;;1.70;1.10;;;20.50;99.90;;;;;;1042762;28;20017;-71
2022/05/11 00:27:48;;;;;;;1.67;1.10;;;20.50;99.90;;;;;;1043388;28;20070;-70
2022/05/11 00:28:18;;;;;;;1.23;0.97;;;20.50;99.90;;;;;;1038537;28;20067;-71
2022/05/11 00:28:49;;;;;;;1.20;1.00;;;20.50;99.90;;;;;;1039045;28;20018;-71
2022/05/11 00:29:19;;;;;;;3.00;1.63;;;20.50;99.90;;;;;;1034581;28;20002;-72
2022/05/11 00:29:50;;;;;;;1.47;1.20;;;20.50;99.90;;;;;;1037796;28;20022;-71
2022/05/11 00:30:21;;;;;;;2.57;1.03;;;20.50;99.90;;;;;;1034522;28;20025;-70
2022/05/11 00:30:52;;;;;;;1.85;1.10;;;20.50;99.90;;;;;;1034807;28;20152;-70
2022/05/11 00:31:23;;;;;;;1.67;1.20;;;20.50;99.90;;;;;;1039024;28;20087;-70
2022/05/11 00:31:54;;;;;;;1.80;1.27;;;20.50;99.90;;;;;;1034745;28;20032;-70
2022/05/11 00:32:27;;;;;;;2.97;1.53;;;20.50;99.90;;;;;;1038958;28;20734;-71
2022/05/11 00:32:59;;;;;;;1.23;1.13;;;20.50;99.90;;;;;;1038701;28;20025;-70
2022/05/11 00:33:30;;;;;;;1.58;0.95;;;20.50;99.90;;;;;;1038843;28;20017;-70
2022/05/11 00:34:01;;;;;;;1.20;1.10;;;20.50;99.90;;;;;;1039230;28;20079;-70
2022/05/11 00:34:31;;;;;;;2.23;1.50;;;20.50;99.90;;;;;;1038781;28;20272;-73
2022/05/11 00:35:02;;;;;;;1.77;1.20;;;20.50;99.90;;;;;;1038582;28;20021;-72
2022/05/11 00:35:34;;;;;;;1.67;1.00;;;20.50;99.90;;;;;;1040130;28;20069;-70
2022/05/11 00:36:10;;;;;;;2.55;1.10;;;20.50;99.90;;;;;;1038819;28;20025;-72
2022/05/11 00:36:41;;;;;;;2.38;1.25;;;20.50;99.90;;;;;;1042950;28;20377;-71
2022/05/11 00:37:11;;;;;;;1.70;1.17;;;20.50;99.90;;;;;;1042812;28;20514;-70
2022/05/11 00:37:42;;;;;;;2.00;1.10;;;20.50;99.90;;;;;;1042862;28;20020;-72
2022/05/11 00:38:14;;;;;;;2.30;1.03;;;20.50;99.90;;;;;;1043059;28;20021;-69
2022/05/11 00:38:44;;;;;;;2.08;1.13;;;20.50;99.90;;;;;;1042800;28;20025;-71
2022/05/11 00:39:15;;;;;;;1.63;1.10;;;20.50;99.90;;;;;;1042885;28;20024;-71
2022/05/11 00:39:46;;;;;;;2.50;1.17;;;20.50;99.90;;;;;;1043064;28;20025;-71
2022/05/11 00:40:19;;;;;;;1.07;1.00;;;20.50;99.90;;;;;;1042648;28;20033;-71
2022/05/11 00:40:58;;;;;;;2.92;1.15;;;20.50;99.90;;;;;;1042802;28;20037;-69
2022/05/11 00:41:29;;;;;;;1.45;1.02;;;20.50;99.90;;;;;;1042455;28;20023;-70
2022/05/11 00:42:02;;;;;;;1.40;1.10;;;20.50;99.90;;;;;;1042458;28;20033;-70
2022/05/11 00:42:32;;;;;;;2.92;1.27;;;20.40;99.90;;;;;;1042886;28;20111;-72
2022/05/11 00:43:03;;;;;;;3.20;1.10;;;20.40;99.90;;;;;;1042670;28;20431;-71
2022/05/11 00:43:38;;;;;;;1.97;1.30;;;20.50;99.90;;;;;;1042734;28;20045;-71
2022/05/11 00:44:09;;;;;;;3.13;1.30;;;20.40;99.90;;;;;;1042705;28;20067;-70
2022/05/11 00:44:40;;;;;;;1.67;1.13;;;20.50;99.90;;;;;;1039629;28;20025;-71
2022/05/11 00:45:12;;;;;;;1.58;1.15;;;20.40;99.90;;;;;;1038252;28;20025;-70
2022/05/11 00:45:48;;;;;;;2.83;1.30;;;20.50;99.90;;;;;;1034886;28;20767;-71
2022/05/11 00:46:44;;;;;;;2.63;1.42;;;20.40;99.90;;;;;;1035451;28;20022;-70
2022/05/11 00:47:23;;;;;;;2.22;1.42;;;20.40;99.90;;;;;;1038599;28;20033;-71
2022/05/11 00:47:59;;;;;;;1.95;1.08;;;20.40;99.90;;;;;;1042757;28;20111;-70
2022/05/11 00:49:34;;;;;;;1.83;1.10;;;20.40;99.90;;;;;;1038789;28;20190;-74
2022/05/11 00:50:12;;;;;;;1.95;1.33;;;20.40;99.90;;;;;;1038710;28;20026;-71
2022/05/11 00:50:43;;;;;;;2.97;1.40;;;20.40;99.90;;;;;;1038510;28;20369;-71
2022/05/11 00:51:14;;;;;;;2.40;1.13;;;20.40;99.90;;;;;;1038510;28;20802;-72
2022/05/11 00:51:57;;;;;;;2.25;1.17;;;20.40;99.90;;;;;;1038385;28;20112;-73
2022/05/11 00:52:52;;;;;;;1.48;0.82;;;20.40;99.90;;;;;;1038608;28;20442;-72
2022/05/11 00:53:23;;;;;;;2.40;1.27;;;20.40;99.90;;;;;;1039026;28;20041;-73
2022/05/11 00:53:54;;;;;;;4.35;1.45;;;20.40;99.90;;;;;;1038471;28;20025;-71
2022/05/11 00:54:29;;;;;;;1.88;1.38;;;20.40;99.90;;;;;;1038878;28;20084;-71
2022/05/11 00:55:08;;;;;;;2.63;1.50;;;20.40;99.90;;;;;;1038729;28;20061;-69
2022/05/11 00:55:44;;;;;;;2.85;1.88;;;20.40;99.90;;;;;;1038505;28;20010;-71
2022/05/11 00:56:15;;;;;;;2.30;1.30;;;20.40;99.90;;;;;;1038703;28;20083;-70
2022/05/11 00:56:50;;;;;;;2.20;1.50;;;20.40;99.90;;;;;;1036462;28;20076;-71
2022/05/11 00:57:29;;;;;;;1.33;1.05;;;20.40;99.90;;;;;;1034760;28;20069;-71
2022/05/11 00:58:22;;;;;;;2.60;1.90;;;20.40;99.90;;;;;;1036437;28;20643;-70
2022/05/11 00:58:56;;;;;;;3.75;1.65;;;20.40;99.90;;;;;;1038786;28;20108;-71
2022/05/11 00:59:33;;;;;;;2.63;1.50;;;20.40;99.90;;;;;;1038962;28;20017;-72
2022/05/11 01:00:08;;;;;;;3.17;1.45;;;20.40;99.90;;;;;;1038579;28;20600;-71
2022/05/11 01:00:39;;;;;;;2.88;1.42;;;20.40;99.90;;;;;;1038923;28;20048;-71
2022/05/11 01:01:09;;;;;;;2.80;1.40;;;20.40;99.90;;;;;;1038546;28;20485;-70
2022/05/11 01:01:41;;;;;;;1.80;1.50;;;20.40;99.90;;;;;;1038675;28;20260;-70
2022/05/11 01:02:13;;;;;;;3.90;1.45;;;20.40;99.90;;;;;;1038565;28;20026;-70
2022/05/11 01:02:45;;;;;;;1.85;1.48;;;20.40;99.90;;;;;;1038742;28;20117;-70
2022/05/11 01:03:30;;;;;;;1.70;1.30;;;20.40;99.90;;;;;;1038335;28;20156;-71
2022/05/11 01:04:09;;;;;;;2.03;1.60;;;20.40;99.90;;;;;;1038530;28;20123;-71
2022/05/11 01:04:42;;;;;;;2.75;1.40;;;20.40;99.90;;;;;;1034511;28;20018;-70
2022/05/11 01:05:12;;;;;;;2.72;1.70;;;20.40;99.90;;;;;;1034590;28;20454;-71
2022/05/11 01:05:44;;;;;;;4.50;1.73;;;20.40;99.90;;;;;;1036203;28;20756;-70
2022/05/11 01:06:17;;;;;;;1.98;1.35;;;20.40;99.90;;;;;;1038543;28;20020;-69
2022/05/11 01:06:48;;;;;;;1.20;1.10;;;20.40;99.90;;;;;;1039108;28;20014;-71
2022/05/11 01:07:18;;;;;;;2.57;1.50;;;20.40;99.90;;;;;;1038948;28;20014;-72
2022/05/11 01:07:52;;;;;;;2.33;1.40;;;20.40;99.90;;;;;;1039042;28;20641;-71
2022/05/11 01:08:23;;;;;;;3.10;1.60;;;20.40;99.90;;;;;;1038850;28;20022;-70
2022/05/11 01:08:54;;;;;;;3.15;1.75;;;20.40;99.90;;;;;;1039105;28;20021;-70
2022/05/11 01:09:24;;;;;;;3.23;1.73;;;20.40;99.90;;;;;;1041075;28;20017;-71
2022/05/11 01:09:55;;;;;;;1.57;1.30;;;20.40;99.90;;;;;;1043179;28;20575;-71
2022/05/11 01:10:27;;;;;;;1.93;1.50;;;20.30;99.90;;;;;;1042940;28;20040;-71
2022/05/11 01:11:01;;;;;;;2.25;1.23;;;20.30;99.90;;;;;;1043245;28;20021;-70
2022/05/11 01:11:36;;;;;;;2.58;1.73;;;20.30;99.90;;;;;;1042831;28;20059;-69
2022/05/11 01:12:12;;;;;;;1.40;1.17;;;20.30;99.90;;;;;;1042957;28;20040;-70
2022/05/11 01:12:45;;;;;;;2.55;1.52;;;20.30;99.90;;;;;;1042509;28;20045;-70
2022/05/11 01:13:18;;;;;;;1.73;1.50;;;20.30;99.90;;;;;;1042671;28;20464;-71
2022/05/11 01:13:48;;;;;;;2.60;1.70;;;20.30;99.90;;;;;;1042459;28;20126;-71
2022/05/11 01:14:24;;;;;;;3.60;1.47;;;20.30;99.90;;;;;;1043071;28;20056;-71
2022/05/11 01:15:00;;;;;;;2.13;1.50;;;20.30;99.90;;;;;;1042734;28;20551;-70
2022/05/11 01:15:32;;;;;;;3.25;1.60;;;20.30;99.90;;;;;;1042746;28;20646;-71
2022/05/11 01:16:03;;;;;;;1.80;1.60;;;20.30;99.90;;;;;;1042740;28;20021;-69
2022/05/11 01:16:35;;;;;;;2.77;1.97;;;20.30;99.90;;;;;;1042592;28;20052;-71
2022/05/11 01:17:06;;;;;;;2.30;1.48;;;20.30;99.90;;;;;;1042775;28;20251;-69
2022/05/11 01:17:38;;;;;;;1.92;1.33;;;20.30;99.90;;;;;;1042713;28;20091;-71
2022/05/11 01:18:10;;;;;;;2.75;1.60;;;20.30;99.90;;;;;;1042678;28;20024;-70
2022/05/11 01:18:41;;;;;;;2.80;1.33;;;20.30;99.90;;;;;;1038972;28;20034;-72
2022/05/11 01:19:27;;;;;;;3.05;1.40;;;20.30;99.90;;;;;;1038496;28;20032;-70
2022/05/11 01:19:58;;;;;;;2.40;1.48;;;20.30;99.90;;;;;;1038489;28;20025;-70
2022/05/11 01:20:33;;;;;;;2.33;1.50;;;20.30;99.90;;;;;;1041061;28;20030;-69
2022/05/11 01:21:05;;;;;;;1.77;1.38;;;20.30;99.90;;;;;;1042499;28;20096;-70
2022/05/11 01:22:02;;;;;;;2.08;1.30;;;20.30;99.90;;;;;;1043028;28;20025;-71
2022/05/11 01:22:40;;;;;;;1.48;1.27;;;20.30;99.90;;;;;;1037181;28;20036;-70
2022/05/11 01:23:28;;;;;;;2.53;1.38;;;20.30;99.90;;;;;;1042778;28;20055;-69
2022/05/11 01:24:06;;;;;;;2.50;1.40;;;20.30;99.90;;;;;;1042792;28;20757;-70
2022/05/11 01:24:43;;;;;;;2.03;1.25;;;20.30;99.90;;;;;;1042668;28;20378;-70
2022/05/11 01:25:15;;;;;;;2.55;1.45;;;20.30;99.90;;;;;;1042384;28;20550;-71
2022/05/11 01:25:46;;;;;;;3.63;1.65;;;20.30;99.90;;;;;;1038042;28;20021;-72
2022/05/11 01:26:18;;;;;;;2.70;1.33;;;20.30;99.90;;;;;;1034393;28;20129;-70
2022/05/11 01:26:49;;;;;;;1.42;1.30;;;20.30;99.90;;;;;;1035058;28;20034;-70
2022/05/11 01:27:46;;;;;;;1.23;1.10;;;20.30;99.90;;;;;;1038536;28;20021;-69
2022/05/11 01:28:18;;;;;;;2.17;1.52;;;20.30;99.90;;;;;;1038375;28;20562;-71
2022/05/11 01:28:54;;;;;;;4.03;1.40;;;20.30;99.90;;;;;;1039021;28;20130;-70
2022/05/11 01:29:24;;;;;;;2.05;1.10;;;20.30;99.90;;;;;;1038852;28;20037;-68
2022/05/11 01:29:58;;;;;;;1.43;1.20;;;20.30;99.90;;;;;;1038509;28;20029;-72
2022/05/11 01:30:29;;;;;;;1.98;1.33;;;20.30;99.90;;;;;;1038420;28;20496;-69
2022/05/11 01:31:06;;;;;;;2.00;1.30;;;20.30;99.90;;;;;;1038831;28;20488;-70
2022/05/11 01:31:36;;;;;;;2.85;1.55;;;20.30;99.90;;;;;;1038276;28;20850;-72
2022/05/11 01:32:07;;;;;;;3.37;1.40;;;20.30;99.90;;;;;;1042802;28;20658;-73
2022/05/11 01:32:39;;;;;;;1.57;1.23;;;20.30;99.90;;;;;;1043046;28;20128;-71
2022/05/11 01:33:15;;;;;;;2.17;1.20;;;20.30;99.90;;;;;;1042594;28;20061;-70
2022/05/11 01:33:48;;;;;;;2.10;1.13;;;20.30;99.90;;;;;;1042600;28;20134;-71
2022/05/11 01:34:24;;;;;;;1.52;1.20;;;20.30;99.90;;;;;;1042938;28;20017;-71
2022/05/11 01:35:18;;;;;;;1.25;1.10;;;20.30;99.90;;;;;;1042737;28;20400;-69
2022/05/11 01:36:05;;;;;;;2.63;1.38;;;20.30;99.90;;;;;;1042771;28;20623;-71
2022/05/11 01:36:36;;;;;;;2.30;1.30;;;20.30;99.90;;;;;;1042449;28;20065;-71
2022/05/11 01:37:06;;;;;;;3.30;1.93;;;20.30;99.90;;;;;;1042897;28;20457;-69
2022/05/11 01:37:56;;;;;;;1.10;0.90;;;20.30;99.90;;;;;;1038335;28;20020;-72
2022/05/11 01:38:43;;;;;;;2.03;1.17;;;20.30;99.90;;;;;;1037178;28;20508;-72
2022/05/11 01:39:14;;;;;;;1.80;1.40;;;20.30;99.90;;;;;;1039447;28;20460;-71
2022/05/11 01:39:44;;;;;;;2.07;1.27;;;20.30;99.90;;;;;;1042639;28;20480;-71
2022/05/11 01:40:15;;;;;;;2.10;1.67;;;20.30;99.90;;;;;;1040793;28;20540;-71
2022/05/11 01:40:45;;;;;;;2.80;1.40;;;20.30;99.90;;;;;;1038477;28;20294;-72
2022/05/11 01:41:29;;;;;;;1.83;1.10;;;20.30;99.90;;;;;;1038581;28;20717;-71
2022/05/11 01:42:00;;;;;;;2.35;1.15;;;20.20;99.90;;;;;;1038276;28;20021;-71
2022/05/11 01:42:30;;;;;;;1.90;1.40;;;20.30;99.90;;;;;;1040393;28;20021;-70
2022/05/11 01:43:01;;;;;;;1.70;1.20;;;20.20;99.90;;;;;;1042719;28;20644;-71
2022/05/11 01:43:34;;;;;;;1.63;1.40;;;20.20;99.90;;;;;;1043040;28;20395;-71
2022/05/11 01:44:09;;;;;;;1.85;1.38;;;20.20;99.90;;;;;;1040251;28;20112;-70
2022/05/11 01:44:40;;;;;;;1.95;1.08;;;20.20;99.90;;;;;;1038749;28;20014;-70
2022/05/11 01:45:11;;;;;;;1.67;1.10;;;20.20;99.90;;;;;;1034094;28;20060;-71
2022/05/11 01:45:41;;;;;;;2.97;1.30;;;20.20;99.90;;;;;;1031267;28;20061;-70
2022/05/11 01:46:13;;;;;;;2.50;1.20;;;20.20;99.90;;;;;;1034437;28;20048;-71
2022/05/11 01:46:49;;;;;;;1.73;1.20;;;20.20;99.90;;;;;;1034591;28;20120;-69
2022/05/11 01:47:20;;;;;;;2.03;1.40;;;20.20;99.90;;;;;;1035521;28;20033;-70
2022/05/11 01:47:54;;;;;;;1.27;0.97;;;20.20;99.90;;;;;;1038590;28;20025;-71
2022/05/11 01:48:25;;;;;;;1.25;1.15;;;20.20;99.90;;;;;;1038476;28;20091;-71
2022/05/11 01:48:56;;;;;;;2.00;1.10;;;20.20;99.90;;;;;;1039261;28;20092;-71
2022/05/11 01:49:27;;;;;;;2.13;1.10;;;20.20;99.90;;;;;;1038717;28;20180;-70
2022/05/11 01:49:58;;;;;;;1.40;1.20;;;20.20;99.90;;;;;;1038955;28;20053;-70
2022/05/11 01:50:28;;;;;;;1.40;1.30;;;20.20;99.90;;;;;;1038668;28;20035;-71
2022/05/11 01:50:59;;;;;;;2.30;1.20;;;20.20;99.90;;;;;;1038579;28;20025;-71
2022/05/11 01:51:30;;;;;;;2.53;1.50;;;20.20;99.90;;;;;;1038224;28;20120;-71
2022/05/11 01:52:01;;;;;;;1.80;1.20;;;20.20;99.90;;;;;;1038638;28;20083;-71
2022/05/11 01:52:31;;;;;;;2.10;1.20;;;20.20;99.90;;;;;;1038107;28;20057;-71
2022/05/11 01:53:02;;;;;;;2.10;1.33;;;20.20;99.90;;;;;;1038603;28;20072;-71
2022/05/11 01:53:33;;;;;;;1.73;1.53;;;20.20;99.90;;;;;;1038337;28;20025;-71
2022/05/11 01:54:04;;;;;;;1.43;1.10;;;20.20;99.90;;;;;;1039662;28;20492;-73
2022/05/11 01:54:34;;;;;;;2.30;1.13;;;20.20;99.90;;;;;;1039041;28;20639;-70
2022/05/11 01:55:05;;;;;;;2.80;1.50;;;20.20;99.90;;;;;;1039891;28;20075;-69
2022/05/11 01:55:36;;;;;;;3.30;1.25;;;20.20;99.90;;;;;;1039287;28;20654;-73
2022/05/11 01:56:07;;;;;;;3.07;1.40;;;20.20;99.90;;;;;;1039941;28;20540;-68
2022/05/11 01:56:38;;;;;;;2.00;1.23;;;20.20;99.90;;;;;;1039704;28;20021;-70
2022/05/11 01:57:09;;;;;;;1.63;1.17;;;20.20;99.90;;;;;;1039278;28;20171;-70
2022/05/11 01:57:39;;;;;;;2.13;1.30;;;20.20;99.90;;;;;;1039300;28;20044;-69
2022/05/11 01:58:11;;;;;;;1.80;1.40;;;20.20;99.90;;;;;;1039282;28;20034;-69
2022/05/11 01:58:42;;;;;;;3.53;1.58;;;20.20;99.90;;;;;;1039254;28;20566;-70
2022/05/11 01:59:13;;;;;;;1.93;1.00;;;20.20;99.90;;;;;;1040018;28;20480;-70
2022/05/11 01:59:43;;;;;;;2.07;1.00;;;20.20;99.90;;;;;;1039500;28;20030;-69
2022/05/11 02:00:14;;;;;;;3.00;1.40;;;20.20;99.90;;;;;;1039176;28;20036;-70
2022/05/11 02:00:46;;;;;;;2.60;1.30;;;20.20;99.90;;;;;;1039487;28;20026;-70
2022/05/11 02:01:20;;;;;;;1.63;1.20;;;20.20;99.90;;;;;;1039447;28;20403;-70
2022/05/11 02:01:50;;;;;;;3.22;1.65;;;20.20;99.90;;;;;;1036037;28;20064;-71
2022/05/11 02:02:21;;;;;;;2.20;1.33;;;20.20;99.90;;;;;;1039306;28;20076;-70
2022/05/11 02:02:52;;;;;;;3.03;1.30;;;20.20;99.90;;;;;;1039331;28;20063;-71
2022/05/11 02:03:22;;;;;;;2.13;1.40;;;20.20;99.90;;;;;;1039193;28;20046;-70
2022/05/11 02:03:53;;;;;;;2.73;1.53;;;20.20;99.90;;;;;;1039268;28;20060;-70
2022/05/11 02:07:52;;;;;;;1.98;1.15;;;20.20;99.90;;;;;;1039759;28;20310;-69
2022/05/11 02:08:23;;;;;;;4.70;1.30;;;20.20;99.90;;;;;;1039567;28;20032;-71
2022/05/11 02:08:53;;;;;;;2.55;1.55;;;20.20;99.90;;;;;;1039747;28;20119;-72
2022/05/11 02:09:24;;;;;;;3.40;1.30;;;20.20;99.90;;;;;;1039083;28;20029;-69
2022/05/11 02:09:54;;;;;;;3.83;1.60;;;20.20;99.90;;;;;;1039476;28;20051;-70
2022/05/11 02:10:28;;;;;;;2.30;1.33;;;20.20;99.90;;;;;;1039020;28;20037;-72
2022/05/11 02:10:58;;;;;;;1.75;1.30;;;20.20;99.90;;;;;;1039568;28;20026;-71
2022/05/11 02:11:29;;;;;;;3.03;1.57;;;20.20;99.90;;;;;;1040456;28;20029;-71
2022/05/11 02:11:59;;;;;;;2.50;1.47;;;20.20;99.90;;;;;;1043766;28;20025;-69
2022/05/11 02:12:30;;;;;;;1.30;1.20;;;20.20;99.90;;;;;;1043084;28;20119;-68
2022/05/11 02:13:01;;;;;;;1.83;1.47;;;20.20;99.90;;;;;;1043623;28;20025;-72
2022/05/11 02:13:32;;;;;;;2.80;1.73;;;20.20;99.90;;;;;;1042995;28;20013;-69
2022/05/11 02:14:03;;;;;;;1.30;1.20;;;20.20;99.90;;;;;;1043652;28;20087;-70
2022/05/11 02:14:33;;;;;;;5.27;1.50;;;20.20;99.90;;;;;;1039203;28;20053;-69
2022/05/11 02:15:06;;;;;;;2.83;1.40;;;20.20;99.90;;;;;;1039409;28;20472;-70
2022/05/11 02:15:37;;;;;;;2.80;1.30;;;20.20;99.90;;;;;;1039063;28;20021;-70
2022/05/11 02:16:08;;;;;;;1.55;1.45;;;20.20;99.90;;;;;;1039775;28;20424;-70
2022/05/11 02:16:38;;;;;;;2.17;1.27;;;20.20;99.90;;;;;;1043075;28;20500;-69
2022/05/11 02:17:09;;;;;;;1.83;1.07;;;20.20;99.90;;;;;;1043990;28;20361;-69
2022/05/11 02:17:40;;;;;;;2.43;1.47;;;20.20;99.90;;;;;;1043553;28;20017;-70
2022/05/11 02:18:10;;;;;;;2.42;1.50;;;20.20;99.90;;;;;;1043830;28;20186;-71
2022/05/11 02:18:41;;;;;;;2.50;1.57;;;20.20;99.90;;;;;;1043643;28;20017;-70
2022/05/11 02:19:12;;;;;;;1.83;1.33;;;20.20;99.90;;;;;;1043266;28;20061;-69
2022/05/11 02:19:43;;;;;;;3.23;1.30;;;20.20;99.90;;;;;;1043369;28;20021;-70
2022/05/11 02:20:16;;;;;;;1.93;1.20;;;20.20;99.90;;;;;;1043320;28;20267;-70
2022/05/11 02:20:46;;;;;;;2.63;1.30;;;20.20;99.90;;;;;;1043209;28;20130;-72
2022/05/11 02:21:17;;;;;;;2.57;1.30;;;20.10;99.90;;;;;;1043102;28;20685;-70
2022/05/11 02:21:48;;;;;;;2.80;1.30;;;20.20;99.90;;;;;;1043165;28;20140;-71
2022/05/11 02:22:19;;;;;;;3.50;1.60;;;20.10;99.90;;;;;;1036491;28;20436;-71
2022/05/11 02:22:50;;;;;;;2.80;1.52;;;20.10;99.90;;;;;;1035019;28;20021;-72
2022/05/11 02:23:22;;;;;;;1.80;1.20;;;20.10;99.90;;;;;;1035171;28;20022;-69
2022/05/11 02:23:53;;;;;;;1.58;1.38;;;20.10;99.90;;;;;;1035581;28;20026;-71
2022/05/11 02:24:24;;;;;;;1.70;1.20;;;20.10;99.90;;;;;;1039230;28;20069;-72
2022/05/11 02:24:54;;;;;;;2.27;1.20;;;20.10;99.90;;;;;;1039761;28;20592;-69
2022/05/11 02:25:25;;;;;;;3.20;1.60;;;20.10;99.90;;;;;;1041273;28;20396;-69
2022/05/11 02:25:57;;;;;;;1.90;1.40;;;20.10;99.90;;;;;;1043385;28;20029;-72
2022/05/11 02:26:27;;;;;;;2.72;1.50;;;20.10;99.90;;;;;;1043578;28;20074;-69
2022/05/11 02:27:03;;;;;;;2.37;1.67;;;20.10;99.90;;;;;;1039674;28;20118;-71
2022/05/11 02:27:34;;;;;;;2.00;1.30;;;20.10;99.90;;;;;;1034887;28;20545;-71
2022/05/11 02:28:04;;;;;;;3.75;1.30;;;20.10;99.90;;;;;;1036952;28;20366;-71
2022/05/11 02:28:35;;;;;;;3.93;2.20;;;20.10;99.90;;;;;;1035560;28;20026;-69
2022/05/11 02:29:05;;;;;;;1.80;1.30;;;20.10;99.90;;;;;;1039526;28;20041;-69
2022/05/11 02:29:36;;;;;;;2.50;1.40;;;20.10;99.90;;;;;;1043244;28;20025;-72
2022/05/11 02:30:09;;;;;;;2.07;1.20;;;20.10;99.90;;;;;;1039461;28;20117;-68
2022/05/11 02:30:42;;;;;;;2.03;1.35;;;20.10;99.90;;;;;;1043264;28;20013;-71
2022/05/11 02:31:12;;;;;;;2.30;1.30;;;20.10;99.90;;;;;;1043217;28;20377;-71
2022/05/11 02:31:43;;;;;;;2.17;1.33;;;20.10;99.90;;;;;;1043238;28;20588;-70
2022/05/11 02:32:13;;;;;;;2.47;1.50;;;20.10;99.90;;;;;;1043772;28;20063;-72
2022/05/11 02:32:44;;;;;;;1.30;1.10;;;20.10;99.90;;;;;;1043762;28;20012;-71
2022/05/11 02:33:15;;;;;;;2.47;1.30;;;20.10;99.90;;;;;;1043711;28;20016;-70
2022/05/11 02:33:46;;;;;;;1.40;1.30;;;20.10;99.90;;;;;;1043685;28;20658;-69
2022/05/11 02:35:12;;;;;;;3.97;1.33;;;20.10;99.90;;;;;;1043713;28;20803;-69
2022/05/11 02:35:13;;;;;;;1.60;1.30;;;20.10;99.90;;;;;;1043948;28;20243;-68
2022/05/11 02:35:45;;;;;;;3.08;1.65;;;20.10;99.90;;;;;;1043500;28;20596;-70
2022/05/11 02:36:15;;;;;;;1.55;1.35;;;20.10;99.90;;;;;;1043734;28;20025;-70
2022/05/11 02:36:46;;;;;;;2.03;1.50;;;20.10;99.90;;;;;;1043023;28;20056;-71
2022/05/11 02:37:16;;;;;;;2.17;1.43;;;20.10;99.90;;;;;;1043405;28;20048;-70
2022/05/11 02:37:55;;;;;;;4.07;1.80;;;20.10;99.90;;;;;;1043121;28;20009;-73
2022/05/11 02:38:33;;;;;;;2.63;1.50;;;20.10;99.90;;;;;;1043465;28;20017;-70
2022/05/11 02:39:04;;;;;;;1.45;1.30;;;20.10;99.90;;;;;;1043583;28;20070;-70
2022/05/11 02:39:34;;;;;;;1.97;1.50;;;20.10;99.90;;;;;;1043681;28;20009;-71
2022/05/11 02:40:07;;;;;;;1.33;1.10;;;20.10;99.90;;;;;;1043158;28;20013;-69
2022/05/11 02:40:39;;;;;;;1.77;1.20;;;20.10;99.90;;;;;;1039348;28;20060;-70
2022/05/11 02:41:10;;;;;;;1.70;1.38;;;20.10;99.90;;;;;;1035773;28;20022;-71
2022/05/11 02:41:40;;;;;;;1.93;1.43;;;20.10;99.90;;;;;;1035565;28;20014;-71
2022/05/11 02:42:11;;;;;;;2.03;1.30;;;20.10;99.90;;;;;;1035242;28;20022;-70
2022/05/11 02:42:42;;;;;;;1.20;1.00;;;20.10;99.90;;;;;;1039215;28;20020;-70
2022/05/11 02:43:14;;;;;;;2.03;1.38;;;20.10;99.90;;;;;;1039252;28;20025;-69
2022/05/11 02:43:44;;;;;;;1.98;1.10;;;20.10;99.90;;;;;;1039158;28;20025;-70
2022/05/11 02:44:15;;;;;;;2.37;1.30;;;20.10;99.90;;;;;;1039315;28;20020;-71
2022/05/11 02:44:45;;;;;;;1.60;1.33;;;20.10;99.90;;;;;;1039763;28;20018;-70
2022/05/11 02:45:16;;;;;;;2.67;1.40;;;20.10;99.90;;;;;;1039195;28;20009;-70
2022/05/11 02:45:48;;;;;;;2.20;1.50;;;20.10;99.90;;;;;;1039927;28;20014;-72
2022/05/11 02:46:18;;;;;;;2.63;1.25;;;20.10;99.90;;;;;;1039029;28;20046;-69
2022/05/11 02:46:49;;;;;;;2.47;1.07;;;20.10;99.90;;;;;;1039132;28;20052;-70
2022/05/11 02:47:19;;;;;;;1.43;1.10;;;20.10;99.90;;;;;;1039130;28;20076;-70
2022/05/11 02:47:52;;;;;;;2.00;1.40;;;20.10;99.90;;;;;;1039226;28;20043;-70
2022/05/11 02:48:24;;;;;;;2.50;1.67;;;20.10;99.90;;;;;;1039465;28;20433;-71
2022/05/11 02:48:54;;;;;;;3.08;1.17;;;20.10;99.90;;;;;;1039188;28;20016;-71
2022/05/11 02:49:25;;;;;;;2.90;1.83;;;20.10;99.90;;;;;;1038866;28;20013;-71
2022/05/11 02:49:56;;;;;;;2.23;1.53;;;20.10;99.90;;;;;;1039249;28;20475;-72
2022/05/11 02:50:30;;;;;;;1.23;1.03;;;20.10;99.90;;;;;;1038696;28;20021;-70
2022/05/11 02:51:02;;;;;;;1.42;1.20;;;20.10;99.90;;;;;;1039251;28;20017;-71
2022/05/11 02:51:33;;;;;;;1.65;1.23;;;20.10;99.90;;;;;;1038867;28;20032;-70
2022/05/11 02:52:04;;;;;;;1.10;1.00;;;20.10;99.90;;;;;;1035020;28;20037;-70
2022/05/11 02:52:35;;;;;;;1.87;1.30;;;20.10;99.90;;;;;;1031089;28;20026;-70
2022/05/11 02:53:09;;;;;;;1.98;1.20;;;20.10;99.90;;;;;;1031205;28;20035;-70
2022/05/11 02:53:40;;;;;;;3.08;1.60;;;20.10;99.90;;;;;;1031640;28;20025;-70
2022/05/11 02:54:11;;;;;;;1.70;1.23;;;20.10;99.90;;;;;;1035790;28;20029;-71
2022/05/11 02:54:41;;;;;;;1.13;1.03;;;20.10;99.90;;;;;;1038940;28;20026;-71